createdAt,value
2019-03-08T00:00:23.224Z,75.54
2019-03-08T00:02:56.625Z,76.11
2019-03-08T00:05:30.001Z,75.75
2019-03-08T00:08:03.398Z,75.44
2019-03-08T00:10:36.805Z,75.09
2019-03-08T00:13:10.206Z,75.44
2019-03-08T00:15:43.773Z,74.68
2019-03-08T00:18:17.197Z,74.88
2019-03-08T00:20:50.505Z,75.00
2019-03-08T00:23:23.850Z,74.24
2019-03-08T00:25:57.625Z,73.51
2019-03-08T00:28:30.937Z,73.65
2019-03-08T00:31:04.261Z,72.79
2019-03-08T00:33:37.686Z,73.36
2019-03-08T00:36:11.075Z,73.85
2019-03-08T00:38:44.489Z,73.38
2019-03-08T00:41:17.805Z,72.37
2019-03-08T00:43:51.227Z,71.53
2019-03-08T00:46:24.580Z,70.05
2019-03-08T00:48:57.925Z,70.35
2019-03-08T00:51:31.276Z,69.85
2019-03-08T00:54:04.693Z,70.02
2019-03-08T00:56:39.700Z,70.23
2019-03-08T00:59:13.164Z,70.36
2019-03-08T01:01:46.556Z,69.17
2019-03-08T01:04:19.889Z,68.08
2019-03-08T01:06:53.353Z,68.77
2019-03-08T01:09:26.965Z,68.43
2019-03-08T01:12:00.262Z,67.94
2019-03-08T01:14:33.622Z,66.81
2019-03-08T01:17:07.017Z,67.13
2019-03-08T01:19:40.544Z,67.08
2019-03-08T01:22:13.872Z,67.39
2019-03-08T01:24:47.302Z,67.37
2019-03-08T01:27:20.629Z,67.74
2019-03-08T01:29:54.159Z,66.26
2019-03-08T01:32:27.578Z,66.99
2019-03-08T01:35:00.919Z,67.83
2019-03-08T01:37:34.601Z,67.99
2019-03-08T01:40:08.666Z,67.37
2019-03-08T01:42:43.369Z,67.77
2019-03-08T01:45:16.720Z,68.54
2019-03-08T01:47:50.061Z,68.14
2019-03-08T01:50:23.536Z,67.83
2019-03-08T01:52:56.877Z,67.69
2019-03-08T01:55:30.269Z,67.96
2019-03-08T01:58:03.603Z,67.97
2019-03-08T02:00:36.980Z,68.54
2019-03-08T02:03:10.400Z,68.76
2019-03-08T02:05:43.717Z,68.70
2019-03-08T02:08:17.125Z,69.15
2019-03-08T02:10:50.455Z,69.68
2019-03-08T02:13:24.145Z,69.68
2019-03-08T02:15:57.456Z,69.35
2019-03-08T02:18:30.790Z,69.16
2019-03-08T02:21:07.115Z,68.94
2019-03-08T02:23:39.198Z,69.17
2019-03-08T02:26:12.552Z,69.56
2019-03-08T02:28:45.891Z,70.15
2019-03-08T02:31:19.209Z,70.08
2019-03-08T02:33:52.616Z,69.63
2019-03-08T02:36:25.938Z,70.03
2019-03-08T02:38:59.264Z,69.95
2019-03-08T02:41:32.621Z,70.09
2019-03-08T02:44:06.067Z,70.55
2019-03-08T02:46:39.406Z,70.67
2019-03-08T02:49:12.945Z,70.08
2019-03-08T02:51:46.281Z,70.72
2019-03-08T02:54:19.618Z,69.59
2019-03-08T02:56:52.967Z,69.61
2019-03-08T02:59:26.348Z,70.06
2019-03-08T03:01:59.698Z,69.12
2019-03-08T03:04:33.036Z,69.14
2019-03-08T03:07:06.510Z,68.80
2019-03-08T03:09:39.862Z,69.37
2019-03-08T03:12:13.184Z,69.15
2019-03-08T03:14:46.533Z,70.37
2019-03-08T03:17:20.027Z,70.49
2019-03-08T03:19:53.441Z,71.53
2019-03-08T03:22:26.747Z,70.99
2019-03-08T03:25:00.277Z,71.32
2019-03-08T03:27:33.884Z,69.98
2019-03-08T03:30:13.379Z,69.87
2019-03-08T03:32:46.699Z,70.17
2019-03-08T03:35:20.049Z,70.14
2019-03-08T03:37:53.646Z,70.43
2019-03-08T03:40:27.054Z,70.35
2019-03-08T03:43:00.414Z,70.08
2019-03-08T03:45:33.869Z,68.39
2019-03-08T03:48:07.542Z,68.12
2019-03-08T03:50:40.880Z,68.05
2019-03-08T03:53:14.262Z,68.64
2019-03-08T03:55:47.671Z,68.74
2019-03-08T03:58:20.996Z,67.88
2019-03-08T04:00:54.986Z,68.39
2019-03-08T04:03:28.313Z,67.52
2019-03-08T04:06:01.675Z,67.20
2019-03-08T04:08:35.008Z,67.79
2019-03-08T04:11:08.478Z,67.97
2019-03-08T04:13:41.815Z,68.65
2019-03-08T04:16:15.144Z,68.17
2019-03-08T04:18:48.480Z,68.12
2019-03-08T04:21:21.865Z,68.86
2019-03-08T04:23:55.302Z,69.08
2019-03-08T04:26:28.647Z,69.30
2019-03-08T04:29:02.056Z,68.88
2019-03-08T04:31:35.552Z,68.69
2019-03-08T04:34:08.868Z,67.72
2019-03-08T04:36:42.302Z,68.13
2019-03-08T04:39:15.699Z,68.68
2019-03-08T04:41:49.186Z,68.31
2019-03-08T04:44:22.532Z,68.34
2019-03-08T04:46:56.039Z,67.35
2019-03-08T04:49:29.379Z,67.87
2019-03-08T04:52:02.725Z,67.55
2019-03-08T04:54:36.068Z,67.41
2019-03-08T04:57:09.389Z,66.80
2019-03-08T04:59:42.738Z,66.75
2019-03-08T05:02:16.144Z,67.37
2019-03-08T05:04:49.490Z,66.76
2019-03-08T05:07:22.832Z,66.80
2019-03-08T05:09:56.201Z,66.71
2019-03-08T05:12:30.993Z,67.02
2019-03-08T05:15:05.724Z,66.80
2019-03-08T05:17:39.102Z,66.45
2019-03-08T05:20:12.614Z,67.04
2019-03-08T05:22:45.938Z,66.91
2019-03-08T05:25:19.548Z,66.51
2019-03-08T05:27:52.944Z,66.91
2019-03-08T05:30:26.266Z,66.83
2019-03-08T05:32:59.584Z,66.08
2019-03-08T05:35:33.029Z,66.45
2019-03-08T05:38:06.424Z,66.13
2019-03-08T05:40:39.968Z,66.02
2019-03-08T05:43:13.294Z,65.97
2019-03-08T05:45:46.642Z,66.07
2019-03-08T05:48:19.992Z,66.24
2019-03-08T05:50:53.323Z,66.32
2019-03-08T05:53:26.639Z,66.08
2019-03-08T05:56:00.134Z,65.98
2019-03-08T05:58:33.727Z,65.99
2019-03-08T06:01:07.086Z,66.26
2019-03-08T06:03:40.417Z,65.81
2019-03-08T06:06:13.741Z,66.22
2019-03-08T06:08:47.196Z,66.31
2019-03-08T06:11:20.612Z,65.73
2019-03-08T06:13:53.973Z,65.23
2019-03-08T06:16:27.377Z,64.84
2019-03-08T06:19:00.795Z,64.96
2019-03-08T06:21:34.152Z,64.77
2019-03-08T06:24:07.532Z,64.51
2019-03-08T06:26:41.052Z,64.54
2019-03-08T06:29:14.367Z,64.70
2019-03-08T06:31:47.994Z,64.55
2019-03-08T06:34:21.321Z,63.90
2019-03-08T06:36:54.667Z,63.97
2019-03-08T06:39:27.993Z,64.06
2019-03-08T06:42:01.348Z,63.93
2019-03-08T06:44:34.775Z,63.38
2019-03-08T06:47:08.168Z,63.63
2019-03-08T06:49:41.481Z,63.36
2019-03-08T06:52:14.954Z,63.53
2019-03-08T06:54:48.252Z,63.39
2019-03-08T06:57:21.592Z,62.50
2019-03-08T06:59:56.658Z,62.19
2019-03-08T07:02:30.301Z,61.63
2019-03-08T07:05:04.304Z,61.46
2019-03-08T07:07:37.653Z,61.62
2019-03-08T07:10:11.065Z,61.63
2019-03-08T07:12:44.477Z,61.01
2019-03-08T07:15:17.882Z,61.18
2019-03-08T07:17:51.248Z,60.31
2019-03-08T07:20:38.511Z,60.32
2019-03-08T07:23:27.589Z,59.73
2019-03-08T07:26:05.145Z,59.81
2019-03-08T07:28:57.450Z,60.22
2019-03-08T07:31:32.589Z,59.78
2019-03-08T07:34:07.671Z,59.64
2019-03-08T07:36:45.503Z,59.74
2019-03-08T07:39:36.777Z,59.34
2019-03-08T07:42:28.124Z,60.12
2019-03-08T07:45:19.532Z,59.37
2019-03-08T07:47:57.525Z,59.55
2019-03-08T07:50:32.805Z,59.45
2019-03-08T07:53:11.121Z,59.52
2019-03-08T07:55:52.165Z,59.70
2019-03-08T07:58:35.865Z,59.22
2019-03-08T08:01:10.862Z,59.27
2019-03-08T08:03:45.905Z,59.57
2019-03-08T08:06:20.884Z,59.60
2019-03-08T08:08:55.867Z,59.95
2019-03-08T08:11:33.948Z,60.24
2019-03-08T08:14:08.920Z,60.61
2019-03-08T08:16:43.910Z,61.03
2019-03-08T08:19:18.879Z,60.77
2019-03-08T08:22:12.416Z,60.92
2019-03-08T08:24:50.274Z,60.64
2019-03-08T08:27:27.832Z,60.23
2019-03-08T08:30:02.918Z,60.37
2019-03-08T08:32:40.677Z,60.35
2019-03-08T08:35:15.708Z,60.50
2019-03-08T08:37:53.407Z,60.38
2019-03-08T08:40:40.522Z,60.52
2019-03-08T08:43:15.634Z,60.38
2019-03-08T08:45:59.877Z,61.00
2019-03-08T08:48:37.631Z,60.98
2019-03-08T08:51:21.218Z,61.00
2019-03-08T08:54:11.300Z,61.35
2019-03-08T08:56:46.428Z,61.03
2019-03-08T08:59:24.307Z,61.32
2019-03-08T09:02:01.824Z,61.59
2019-03-08T09:04:36.840Z,61.86
2019-03-08T09:07:14.675Z,61.91
2019-03-08T09:09:55.340Z,62.11
2019-03-08T09:12:39.440Z,61.70
2019-03-08T09:15:17.283Z,61.76
2019-03-08T09:17:54.773Z,61.35
2019-03-08T09:20:46.023Z,61.54
2019-03-08T09:23:39.571Z,61.60
2019-03-08T09:26:30.436Z,61.33
2019-03-08T09:29:08.536Z,61.50
2019-03-08T09:31:43.534Z,61.71
2019-03-08T09:34:19.593Z,61.89
2019-03-08T09:37:10.600Z,61.57
2019-03-08T09:39:45.575Z,61.30
2019-03-08T09:42:26.115Z,61.56
2019-03-08T09:45:01.138Z,61.69
2019-03-08T09:47:36.100Z,61.89
2019-03-08T09:50:27.106Z,62.09
2019-03-08T09:53:02.401Z,61.99
2019-03-08T09:55:37.446Z,62.45
2019-03-08T09:58:24.106Z,62.77
2019-03-08T10:01:01.950Z,63.49
2019-03-08T10:03:36.922Z,64.17
2019-03-08T10:06:12.122Z,65.91
2019-03-08T10:08:47.599Z,65.85
2019-03-08T10:11:22.867Z,66.67
2019-03-08T10:14:13.074Z,66.20
2019-03-08T10:16:48.061Z,66.75
2019-03-08T10:19:28.869Z,67.31
2019-03-08T10:22:20.079Z,68.19
2019-03-08T10:24:55.038Z,70.57
2019-03-08T10:27:38.180Z,72.22
2019-03-08T10:30:25.910Z,71.24
2019-03-08T10:33:06.950Z,74.72
2019-03-08T10:35:41.955Z,75.06
2019-03-08T10:38:32.332Z,73.14
2019-03-08T10:41:23.559Z,74.77
2019-03-08T10:44:09.117Z,76.03
2019-03-08T10:46:50.109Z,74.37
2019-03-08T10:49:41.445Z,75.14
2019-03-08T10:52:22.456Z,74.63
2019-03-08T10:55:00.443Z,73.63
2019-03-08T10:57:40.957Z,72.23
2019-03-08T11:00:19.356Z,72.46
2019-03-08T11:03:00.350Z,70.55
2019-03-08T11:05:40.975Z,70.85
2019-03-08T11:08:29.494Z,68.97
2019-03-08T11:11:06.638Z,68.12
2019-03-08T11:13:43.556Z,67.85
2019-03-08T11:16:20.245Z,68.50
2019-03-08T11:19:08.552Z,67.49
2019-03-08T11:21:55.529Z,67.10
2019-03-08T11:24:33.657Z,67.25
2019-03-08T11:27:24.056Z,66.90
2019-03-08T11:29:59.072Z,67.01
2019-03-08T11:32:36.773Z,65.54
2019-03-08T11:35:21.777Z,65.45
2019-03-08T11:38:05.529Z,66.23
2019-03-08T11:40:40.666Z,65.41
2019-03-08T11:43:34.101Z,66.17
2019-03-08T11:46:18.773Z,65.78
2019-03-08T11:49:05.967Z,65.86
2019-03-08T11:51:57.054Z,65.52
2019-03-08T11:54:44.369Z,64.32
2019-03-08T11:57:25.461Z,64.71
2019-03-08T12:00:00.473Z,64.09
2019-03-08T12:02:47.214Z,64.87
2019-03-08T12:05:31.721Z,64.73
2019-03-08T12:08:12.752Z,64.99
2019-03-08T12:10:50.353Z,64.64
2019-03-08T12:13:25.319Z,64.22
2019-03-08T12:16:19.047Z,64.71
2019-03-08T12:19:03.319Z,64.65
2019-03-08T12:21:38.424Z,64.33
2019-03-08T12:24:13.468Z,64.79
2019-03-08T12:26:57.516Z,65.05
2019-03-08T12:29:32.845Z,64.70
2019-03-08T12:32:10.412Z,64.18
2019-03-08T12:35:00.574Z,63.49
2019-03-08T12:37:41.536Z,63.03
2019-03-08T12:40:19.571Z,61.09
2019-03-08T12:42:54.600Z,60.53
2019-03-08T12:45:41.761Z,60.02
2019-03-08T12:48:25.752Z,62.16
2019-03-08T12:51:17.287Z,61.33
2019-03-08T12:54:10.633Z,61.59
2019-03-08T12:56:54.574Z,60.56
2019-03-08T12:59:35.036Z,61.01
2019-03-08T13:02:19.011Z,60.70
2019-03-08T13:05:00.015Z,61.84
2019-03-08T13:07:35.013Z,60.65
2019-03-08T13:10:16.423Z,60.74
2019-03-08T13:12:50.186Z,61.46
2019-03-08T13:15:23.620Z,61.37
2019-03-08T13:17:56.937Z,61.48
2019-03-08T13:20:30.409Z,61.48
2019-03-08T13:23:03.996Z,61.66
2019-03-08T13:25:37.415Z,60.85
2019-03-08T13:28:10.748Z,60.02
2019-03-08T13:30:44.183Z,60.22
2019-03-08T13:33:17.561Z,60.11
2019-03-08T13:35:50.959Z,60.79
2019-03-08T13:38:24.400Z,61.76
2019-03-08T13:40:57.817Z,63.36
2019-03-08T13:43:31.157Z,64.42
2019-03-08T13:46:04.652Z,65.48
2019-03-08T13:48:38.049Z,67.36
2019-03-08T13:51:11.402Z,69.00
2019-03-08T13:53:44.771Z,70.85
2019-03-08T13:56:18.309Z,70.01
2019-03-08T13:58:51.717Z,69.46
2019-03-08T14:01:25.134Z,68.32
2019-03-08T14:03:58.557Z,65.65
2019-03-08T14:06:32.177Z,63.54
2019-03-08T14:09:06.630Z,63.13
2019-03-08T14:11:40.030Z,61.31
2019-03-08T14:14:13.395Z,60.47
2019-03-08T14:16:46.751Z,58.12
2019-03-08T14:19:20.163Z,55.90
2019-03-08T14:21:53.521Z,56.39
2019-03-08T14:24:26.939Z,57.04
2019-03-08T14:27:00.312Z,57.46
2019-03-08T14:29:33.628Z,57.71
2019-03-08T14:32:06.984Z,58.57
2019-03-08T14:34:40.311Z,58.66
2019-03-08T14:37:16.203Z,58.82
2019-03-08T14:39:48.794Z,59.38
2019-03-08T14:42:26.516Z,59.63
2019-03-08T14:45:03.599Z,60.30
2019-03-08T14:47:37.107Z,60.07
2019-03-08T14:50:10.868Z,60.60
2019-03-08T14:52:44.373Z,60.51
2019-03-08T14:55:18.942Z,60.94
2019-03-08T14:57:55.335Z,61.81
2019-03-08T15:00:29.097Z,64.46
2019-03-08T15:03:03.137Z,68.47
2019-03-08T15:05:36.482Z,71.21
2019-03-08T15:08:13.582Z,69.38
2019-03-08T15:10:47.233Z,70.60
2019-03-08T15:13:23.881Z,69.62
2019-03-08T15:15:57.906Z,70.35
2019-03-08T15:18:31.220Z,68.35
2019-03-08T15:21:04.603Z,66.40
2019-03-08T15:23:37.979Z,63.41
2019-03-08T15:26:11.454Z,63.27
2019-03-08T15:28:44.832Z,63.88
2019-03-08T15:31:18.390Z,64.31
2019-03-08T15:33:51.757Z,64.02
2019-03-08T15:36:25.079Z,63.46
2019-03-08T15:38:59.118Z,63.09
2019-03-08T15:41:32.582Z,62.66
2019-03-08T15:44:06.016Z,63.06
2019-03-08T15:46:39.434Z,62.56
2019-03-08T15:49:13.694Z,62.79
2019-03-08T15:51:47.251Z,62.06
2019-03-08T15:54:20.652Z,61.85
2019-03-08T15:56:54.396Z,60.91
2019-03-08T15:59:27.770Z,59.51
2019-03-08T16:02:02.008Z,58.92
2019-03-08T16:04:36.246Z,58.10
2019-03-08T16:07:10.064Z,57.60
2019-03-08T16:09:43.477Z,55.41
2019-03-08T16:12:16.981Z,55.77
2019-03-08T16:14:50.595Z,54.47
2019-03-08T16:17:24.014Z,55.56
2019-03-08T16:19:58.881Z,55.65
2019-03-08T16:22:32.641Z,56.00
2019-03-08T16:25:09.054Z,55.64
2019-03-08T16:27:42.481Z,55.49
2019-03-08T16:30:23.705Z,55.41
2019-03-08T16:33:04.111Z,55.57
2019-03-08T16:35:48.156Z,55.68
2019-03-08T16:38:39.083Z,55.93
2019-03-08T16:41:29.418Z,56.87
2019-03-08T16:44:13.568Z,56.61
2019-03-08T16:46:48.706Z,57.13
2019-03-08T16:49:39.787Z,57.25
2019-03-08T16:52:23.389Z,57.65
2019-03-08T16:55:01.217Z,58.10
2019-03-08T16:57:45.203Z,58.46
2019-03-08T17:00:32.256Z,58.87
2019-03-08T17:03:13.309Z,59.04
2019-03-08T17:05:48.347Z,60.63
2019-03-08T17:08:39.266Z,60.92
2019-03-08T17:11:32.189Z,61.98
2019-03-08T17:14:16.016Z,63.16
2019-03-08T17:16:51.025Z,64.06
2019-03-08T17:19:28.992Z,64.76
2019-03-08T17:22:15.988Z,65.68
2019-03-08T17:24:59.962Z,65.16
2019-03-08T17:27:41.338Z,65.05
2019-03-08T17:30:24.519Z,65.00
2019-03-08T17:32:59.620Z,64.57
2019-03-08T17:35:35.276Z,65.32
2019-03-08T17:38:12.943Z,66.36
2019-03-08T17:41:04.186Z,66.05
2019-03-08T17:43:41.867Z,66.56
2019-03-08T17:46:19.686Z,67.86
2019-03-08T17:49:06.787Z,69.01
2019-03-08T17:51:57.901Z,70.59
2019-03-08T17:54:49.194Z,70.38
2019-03-08T17:57:26.883Z,69.06
2019-03-08T18:00:10.818Z,70.40
2019-03-08T18:02:45.868Z,70.61
2019-03-08T18:05:23.682Z,71.15
2019-03-08T18:07:58.715Z,70.39
2019-03-08T18:10:42.927Z,70.47
2019-03-08T18:13:17.888Z,71.16
2019-03-08T18:15:55.531Z,72.28
2019-03-08T18:18:46.143Z,72.16
2019-03-08T18:21:33.154Z,72.44
2019-03-08T18:24:24.298Z,72.58
2019-03-08T18:26:59.350Z,72.73
2019-03-08T18:29:49.789Z,72.96
2019-03-08T18:32:27.729Z,71.76
2019-03-08T18:35:05.805Z,71.06
2019-03-08T18:37:57.175Z,70.83
2019-03-08T18:40:35.186Z,70.84
2019-03-08T18:43:10.212Z,70.12
2019-03-08T18:46:01.479Z,70.23
2019-03-08T18:48:36.498Z,69.86
2019-03-08T18:51:23.697Z,69.84
2019-03-08T18:54:04.546Z,68.85
2019-03-08T18:56:45.584Z,68.69
2019-03-08T18:59:26.449Z,69.58
2019-03-08T19:02:16.703Z,70.15
2019-03-08T19:04:54.542Z,70.95
2019-03-08T19:07:32.094Z,70.74
2019-03-08T19:10:11.772Z,69.48
2019-03-08T19:12:46.911Z,69.42
2019-03-08T19:15:28.000Z,69.66
2019-03-08T19:18:19.138Z,68.13
2019-03-08T19:21:10.244Z,69.82
2019-03-08T19:23:47.786Z,68.63
2019-03-08T19:26:25.486Z,66.31
2019-03-08T19:29:00.472Z,63.95
2019-03-08T19:31:44.351Z,62.62
2019-03-08T19:34:19.805Z,62.57
2019-03-08T19:36:57.620Z,62.47
2019-03-08T19:39:38.896Z,62.31
2019-03-08T19:42:22.942Z,61.87
2019-03-08T19:45:03.820Z,61.69
2019-03-08T19:47:45.143Z,60.37
2019-03-08T19:50:36.435Z,59.76
2019-03-08T19:53:13.965Z,59.64
2019-03-08T19:55:52.332Z,59.83
2019-03-08T19:58:27.323Z,60.41
2019-03-08T20:01:14.768Z,59.51
2019-03-08T20:03:53.053Z,59.55
2019-03-08T20:06:39.595Z,59.49
2019-03-08T20:09:14.684Z,57.48
2019-03-08T20:12:05.662Z,58.66
2019-03-08T20:14:43.382Z,58.05
2019-03-08T20:17:24.898Z,57.32
2019-03-08T20:20:11.676Z,56.10
2019-03-08T20:22:46.750Z,55.53
2019-03-08T20:25:27.413Z,54.77
2019-03-08T20:28:08.172Z,54.39
2019-03-08T20:30:43.298Z,53.94
2019-03-08T20:33:23.836Z,54.29
2019-03-08T20:35:58.939Z,53.97
2019-03-08T20:38:49.002Z,53.29
2019-03-08T20:41:26.497Z,52.87
2019-03-08T20:44:13.816Z,53.28
2019-03-08T20:47:00.872Z,52.47
2019-03-08T20:49:34.307Z,53.39
2019-03-08T20:52:07.851Z,53.16
2019-03-08T20:54:41.590Z,53.23
2019-03-08T20:57:15.151Z,53.88
2019-03-08T20:59:48.608Z,52.72
2019-03-08T21:02:21.978Z,52.93
2019-03-08T21:04:55.552Z,53.13
2019-03-08T21:07:29.278Z,53.31
2019-03-08T21:10:02.980Z,53.09
2019-03-08T21:12:36.337Z,53.34
2019-03-08T21:15:25.078Z,53.94
2019-03-08T21:17:51.121Z,54.54
2019-03-08T21:20:24.593Z,53.91
2019-03-08T21:22:58.070Z,53.47
2019-03-08T21:25:31.408Z,52.96
2019-03-08T21:28:04.869Z,53.85
2019-03-08T21:30:38.254Z,54.15
2019-03-08T21:33:11.676Z,52.61
2019-03-08T21:35:45.080Z,52.75
2019-03-08T21:38:18.443Z,52.49
2019-03-08T21:40:51.780Z,51.95
2019-03-08T21:43:25.294Z,50.60
2019-03-08T21:45:58.637Z,51.72
2019-03-08T21:48:32.007Z,51.90
2019-03-08T21:51:05.485Z,51.85
2019-03-08T21:53:38.883Z,52.32
2019-03-08T21:56:12.217Z,52.68
2019-03-08T21:58:45.561Z,51.48
2019-03-08T22:01:18.942Z,52.51
2019-03-08T22:03:54.211Z,54.00
2019-03-08T22:06:27.648Z,55.00
2019-03-08T22:09:05.370Z,56.28
2019-03-08T22:11:40.046Z,57.31
2019-03-08T22:14:13.399Z,55.69
2019-03-08T22:16:46.841Z,54.22
2019-03-08T22:19:20.269Z,52.39
2019-03-08T22:21:53.752Z,52.03
2019-03-08T22:24:27.268Z,51.71
2019-03-08T22:27:00.689Z,51.75
2019-03-08T22:29:34.164Z,50.89
2019-03-08T22:32:07.594Z,51.61
2019-03-08T22:34:41.028Z,51.46
2019-03-08T22:37:14.427Z,51.53
2019-03-08T22:39:47.857Z,51.55
2019-03-08T22:42:21.185Z,51.31
2019-03-08T22:44:54.535Z,51.75
2019-03-08T22:47:28.056Z,52.61
2019-03-08T22:50:01.493Z,52.18
2019-03-08T22:52:34.843Z,52.58
2019-03-08T22:55:13.487Z,53.05
2019-03-08T22:57:46.896Z,53.39
2019-03-08T23:00:54.095Z,54.22
2019-03-08T23:03:28.701Z,55.07
2019-03-08T23:06:02.165Z,55.75
2019-03-08T23:08:35.762Z,56.92
2019-03-08T23:11:09.195Z,57.46
2019-03-08T23:13:42.540Z,57.89
2019-03-08T23:16:15.975Z,58.05
2019-03-08T23:18:49.478Z,58.36
2019-03-08T23:21:22.917Z,58.79
2019-03-08T23:23:56.356Z,59.17
2019-03-08T23:26:31.325Z,59.46
2019-03-08T23:29:21.848Z,59.47
2019-03-08T23:31:59.913Z,60.05
2019-03-08T23:34:33.245Z,60.50
2019-03-08T23:37:06.710Z,60.96
2019-03-08T23:39:40.129Z,61.13
2019-03-08T23:42:13.447Z,60.64
2019-03-08T23:44:47.066Z,60.58
2019-03-08T23:47:20.395Z,60.54
2019-03-08T23:49:53.811Z,60.27
2019-03-08T23:52:27.143Z,59.88
2019-03-08T23:55:00.761Z,59.79
2019-03-08T23:57:34.180Z,59.99
